Time;durP1;ratioP1;P1;durP2;ratioP2;P2;SDS_P1;SDS_P2;PMS_P1;PMS_P2;Temp;Humidity;BMP_temperature;BMP_pressure;BME280_temperature;BME280_humidity;BME280_pressure;Samples;Min_cycle;Max_cycle;Signal;HPM_P1;HPM_P2
2022/07/21 00:00:16;;;;;;;6.97;6.40;;;24.00;96.50;;;;;;4960750;28;20796;-86
2022/07/21 00:02:44;;;;;;;6.63;6.13;;;24.10;96.90;;;;;;4961296;29;20476;-84
2022/07/21 00:05:11;;;;;;;6.00;5.47;;;24.00;96.20;;;;;;4964345;29;20970;-85
2022/07/21 00:07:38;;;;;;;6.50;5.93;;;23.90;96.60;;;;;;4960094;29;20540;-84
2022/07/21 00:10:06;;;;;;;7.80;6.57;;;24.00;97.00;;;;;;4965021;29;20480;-83
2022/07/21 00:12:33;;;;;;;5.93;5.53;;;23.90;96.60;;;;;;4962619;29;21159;-84
2022/07/21 00:15:01;;;;;;;5.33;4.93;;;23.80;96.20;;;;;;4959298;29;20489;-83
2022/07/21 00:17:28;;;;;;;5.13;4.63;;;23.80;96.40;;;;;;4954713;29;20464;-83
2022/07/21 00:19:55;;;;;;;6.10;5.57;;;23.80;96.30;;;;;;4972487;28;20487;-83
2022/07/21 00:22:21;;;;;;;5.87;5.27;;;23.80;97.00;;;;;;4955652;29;20444;-85
2022/07/21 00:24:49;;;;;;;7.03;5.07;;;23.90;97.10;;;;;;4971576;29;20472;-83
2022/07/21 00:27:16;;;;;;;4.53;4.23;;;23.90;96.60;;;;;;4957765;29;20476;-83
2022/07/21 00:29:43;;;;;;;4.70;4.30;;;23.90;97.00;;;;;;4955843;29;20503;-85
2022/07/21 00:32:20;;;;;;;5.37;4.87;;;23.80;96.70;;;;;;4959598;29;20484;-83
2022/07/21 00:34:50;;;;;;;5.53;5.10;;;23.90;97.00;;;;;;4969828;29;20453;-84
2022/07/21 00:37:37;;;;;;;5.23;4.83;;;23.70;97.50;;;;;;4972161;29;20468;-87
2022/07/21 00:40:08;;;;;;;5.23;4.83;;;23.70;97.30;;;;;;4971497;29;20488;-86
2022/07/21 00:42:35;;;;;;;5.17;4.77;;;23.80;97.20;;;;;;4969157;29;20452;-84
2022/07/21 00:45:12;;;;;;;4.37;4.00;;;23.80;97.40;;;;;;4956327;29;20855;-87
2022/07/21 00:47:40;;;;;;;4.87;4.43;;;23.80;96.90;;;;;;4941323;29;20432;-84
2022/07/21 00:50:41;;;;;;;5.30;4.90;;;23.70;96.50;;;;;;4948983;29;20504;-87
2022/07/21 00:53:13;;;;;;;6.97;6.00;;;23.60;96.80;;;;;;4961110;29;20452;-86
2022/07/21 00:55:46;;;;;;;6.23;5.83;;;23.60;96.90;;;;;;4941452;29;20536;-85
2022/07/21 00:58:16;;;;;;;6.00;5.50;;;23.70;97.80;;;;;;4967785;28;20453;-85
2022/07/21 01:00:47;;;;;;;7.20;6.57;;;23.70;97.10;;;;;;4951509;29;20997;-85
2022/07/21 01:03:17;;;;;;;6.77;6.20;;;23.60;98.00;;;;;;4947271;29;20457;-86
2022/07/21 01:05:48;;;;;;;7.17;6.47;;;23.50;98.80;;;;;;4947870;29;21017;-85
2022/07/21 01:08:27;;;;;;;7.83;7.13;;;23.50;98.70;;;;;;4963157;29;20674;-84
2022/07/21 01:11:08;;;;;;;7.97;7.17;;;23.50;99.30;;;;;;4959799;29;20776;-86
2022/07/21 01:13:41;;;;;;;8.90;8.00;;;23.40;99.90;;;;;;4948423;29;20483;-86
2022/07/21 01:16:11;;;;;;;9.10;8.30;;;23.10;99.90;;;;;;4945085;29;20456;-86
2022/07/21 01:18:44;;;;;;;8.10;7.40;;;23.10;99.90;;;;;;4958974;29;20453;-85
2022/07/21 01:21:27;;;;;;;8.67;7.90;;;22.90;99.90;;;;;;4958745;29;20452;-85
2022/07/21 01:23:54;;;;;;;9.53;8.63;;;22.80;99.90;;;;;;4949294;29;20486;-86
2022/07/21 01:26:21;;;;;;;8.93;8.03;;;22.70;99.90;;;;;;4949443;28;20513;-88
2022/07/21 01:28:48;;;;;;;9.10;8.13;;;22.60;99.90;;;;;;4963847;28;20499;-87
2022/07/21 01:31:16;;;;;;;10.80;8.60;;;22.60;99.90;;;;;;4966935;28;20437;-85
2022/07/21 01:33:45;;;;;;;8.77;8.00;;;22.40;99.90;;;;;;4950720;29;20468;-84
2022/07/21 01:36:12;;;;;;;9.20;8.50;;;22.40;99.90;;;;;;4945155;29;20459;-84
2022/07/21 01:41:31;;;;;;;9.70;8.70;;;22.50;99.90;;;;;;4974262;28;20475;-86
2022/07/21 01:44:06;;;;;;;9.70;8.60;;;22.50;99.90;;;;;;4970428;29;20453;-85
2022/07/21 01:46:40;;;;;;;9.23;8.10;;;22.40;99.90;;;;;;4959775;29;20960;-86
2022/07/21 01:49:07;;;;;;;9.50;8.70;;;22.40;99.90;;;;;;4956394;28;20465;-87
2022/07/21 01:51:34;;;;;;;9.40;8.50;;;22.40;99.90;;;;;;4968872;29;20459;-84
2022/07/21 01:54:02;;;;;;;10.50;9.13;;;22.40;99.90;;;;;;4971661;29;20455;-85
2022/07/21 01:56:29;;;;;;;10.20;9.17;;;22.30;99.90;;;;;;4978100;28;20436;-83
2022/07/21 01:58:57;;;;;;;10.63;8.90;;;22.10;99.90;;;;;;4978606;28;20703;-85
2022/07/21 02:01:26;;;;;;;10.17;9.17;;;22.00;99.90;;;;;;4963310;28;20461;-82
2022/07/21 02:04:00;;;;;;;10.10;9.27;;;21.80;99.90;;;;;;4963893;29;20453;-86
2022/07/21 02:06:28;;;;;;;9.27;8.37;;;21.70;99.90;;;;;;4971985;29;20428;-85
2022/07/21 02:08:55;;;;;;;8.40;7.60;;;21.70;99.90;;;;;;4951439;28;20468;-87
2022/07/21 02:11:22;;;;;;;8.77;7.97;;;21.80;99.90;;;;;;4952457;29;20437;-84
2022/07/21 02:13:49;;;;;;;9.93;9.00;;;21.70;99.90;;;;;;4956223;29;20473;-84
2022/07/21 02:16:16;;;;;;;11.37;9.70;;;21.70;99.90;;;;;;4968211;29;20788;-84
2022/07/21 02:18:43;;;;;;;11.30;10.20;;;21.70;99.90;;;;;;4947793;28;20468;-85
2022/07/21 02:21:11;;;;;;;11.47;10.47;;;21.70;99.90;;;;;;4952417;29;20527;-86
2022/07/21 02:23:38;;;;;;;15.57;12.13;;;21.70;99.90;;;;;;4955154;29;20532;-86
2022/07/21 02:26:05;;;;;;;11.30;10.20;;;21.90;99.90;;;;;;4969002;28;20460;-85
2022/07/21 02:28:31;;;;;;;13.47;11.30;;;21.90;99.90;;;;;;4966996;29;20465;-86
2022/07/21 02:30:58;;;;;;;12.10;10.90;;;21.80;99.90;;;;;;4967323;28;20461;-85
2022/07/21 02:33:28;;;;;;;14.90;11.50;;;21.70;99.90;;;;;;4953514;29;20473;-87
2022/07/21 02:35:54;;;;;;;13.60;12.20;;;21.80;99.90;;;;;;4948904;29;20475;-86
2022/07/21 02:38:21;;;;;;;15.10;13.00;;;21.70;99.90;;;;;;4966568;29;20536;-86
2022/07/21 02:40:48;;;;;;;12.13;10.50;;;21.80;99.90;;;;;;4965806;28;20483;-86
2022/07/21 02:43:22;;;;;;;13.23;11.93;;;21.80;99.90;;;;;;4965612;29;20449;-87
2022/07/21 02:45:50;;;;;;;14.00;12.70;;;21.70;99.90;;;;;;4948380;28;20455;-86
2022/07/21 02:48:17;;;;;;;14.13;12.70;;;21.60;99.90;;;;;;4947722;29;20480;-87
2022/07/21 02:50:44;;;;;;;14.20;12.90;;;21.50;99.90;;;;;;4952072;29;20491;-88
2022/07/21 02:53:22;;;;;;;14.80;13.40;;;21.60;99.90;;;;;;4948098;29;20528;-86
2022/07/21 02:55:52;;;;;;;14.70;13.20;;;21.60;99.90;;;;;;4948292;29;20468;-87
2022/07/21 02:58:27;;;;;;;15.73;14.23;;;21.60;99.90;;;;;;4951392;29;20456;-87
2022/07/21 03:01:04;;;;;;;14.63;13.33;;;21.50;99.90;;;;;;4968429;29;20555;-87
2022/07/21 03:03:36;;;;;;;15.40;13.63;;;21.40;99.90;;;;;;4970039;29;20445;-88
2022/07/21 03:06:04;;;;;;;13.30;12.17;;;21.50;99.90;;;;;;4968827;29;20453;-86
2022/07/21 03:08:33;;;;;;;13.57;12.30;;;21.50;99.90;;;;;;4949838;29;20449;-86
2022/07/21 03:11:02;;;;;;;13.67;12.37;;;21.60;99.90;;;;;;4967400;29;20524;-86
2022/07/21 03:13:29;;;;;;;13.40;12.00;;;21.60;99.90;;;;;;4967582;28;20461;-87
2022/07/21 03:15:56;;;;;;;14.00;12.60;;;21.60;99.90;;;;;;4970001;28;20433;-88
2022/07/21 03:18:23;;;;;;;13.83;12.53;;;21.50;99.90;;;;;;4973991;28;20453;-85
2022/07/21 03:20:50;;;;;;;15.10;13.70;;;21.40;99.90;;;;;;4949787;29;20480;-85
2022/07/21 03:23:17;;;;;;;14.27;12.90;;;21.40;99.90;;;;;;4945464;29;20537;-86
2022/07/21 03:25:45;;;;;;;14.70;12.67;;;21.40;99.90;;;;;;4942871;29;20453;-88
2022/07/21 03:28:12;;;;;;;13.50;12.20;;;21.30;99.90;;;;;;4962157;29;20449;-86
2022/07/21 03:30:39;;;;;;;13.07;11.70;;;21.40;99.90;;;;;;4960677;29;20606;-87
2022/07/21 03:33:06;;;;;;;14.87;12.30;;;21.30;99.90;;;;;;4948646;29;20942;-86
2022/07/21 03:35:35;;;;;;;15.10;13.70;;;21.20;99.90;;;;;;4946777;29;20457;-86
2022/07/21 03:38:03;;;;;;;14.80;13.40;;;21.10;99.90;;;;;;4943589;29;20479;-86
2022/07/21 03:40:32;;;;;;;14.30;12.87;;;21.20;99.90;;;;;;4961626;28;20630;-87
2022/07/21 03:43:02;;;;;;;15.73;13.97;;;21.20;99.90;;;;;;4965747;28;20445;-85
2022/07/21 03:45:30;;;;;;;13.93;12.43;;;21.10;99.90;;;;;;4965216;29;20472;-87
2022/07/21 03:48:02;;;;;;;14.47;13.10;;;21.20;99.90;;;;;;4956785;29;20453;-86
2022/07/21 03:50:29;;;;;;;14.60;13.20;;;21.20;99.90;;;;;;4952665;29;20911;-86
2022/07/21 03:52:57;;;;;;;16.27;14.37;;;21.20;99.90;;;;;;4948561;29;20456;-86
2022/07/21 03:55:24;;;;;;;15.07;13.57;;;21.10;99.90;;;;;;4947184;29;20466;-86
2022/07/21 03:57:57;;;;;;;15.30;13.80;;;21.20;99.90;;;;;;4948684;29;20487;-86
2022/07/21 04:00:35;;;;;;;13.90;12.50;;;21.20;99.90;;;;;;4949454;29;20515;-87
2022/07/21 04:03:04;;;;;;;13.10;11.70;;;21.30;99.90;;;;;;4941804;29;20515;-85
2022/07/21 04:05:33;;;;;;;14.27;12.87;;;21.20;99.90;;;;;;4949545;29;20453;-86
2022/07/21 04:08:01;;;;;;;12.43;11.33;;;21.10;99.90;;;;;;4965870;29;20447;-86
2022/07/21 04:10:32;;;;;;;12.23;10.93;;;21.20;99.90;;;;;;4948080;29;20484;-87
2022/07/21 04:13:02;;;;;;;12.53;11.10;;;21.20;99.90;;;;;;4966471;29;20449;-86
2022/07/21 04:15:32;;;;;;;10.70;9.80;;;21.30;99.90;;;;;;4962002;28;20488;-85
2022/07/21 04:17:59;;;;;;;10.57;9.57;;;21.20;99.90;;;;;;4966283;29;20480;-86
2022/07/21 04:20:26;;;;;;;11.17;10.07;;;21.20;99.90;;;;;;4965439;28;20872;-87
2022/07/21 04:22:53;;;;;;;12.73;9.90;;;21.40;99.90;;;;;;4961711;28;20450;-85
2022/07/21 04:25:21;;;;;;;11.30;10.00;;;21.30;99.90;;;;;;4943727;29;20823;-85
2022/07/21 04:27:49;;;;;;;10.47;9.57;;;21.20;99.90;;;;;;4965725;29;20441;-85
2022/07/21 04:30:19;;;;;;;10.40;8.80;;;21.20;99.90;;;;;;4950674;29;20516;-86
2022/07/21 04:32:46;;;;;;;9.43;8.53;;;21.40;99.90;;;;;;4958748;29;20445;-86
2022/07/21 04:35:14;;;;;;;10.30;9.23;;;21.40;99.90;;;;;;4975243;29;20507;-86
2022/07/21 04:37:41;;;;;;;9.60;8.20;;;21.50;99.90;;;;;;4956053;29;20453;-86
2022/07/21 04:40:11;;;;;;;7.63;6.97;;;21.50;99.90;;;;;;4957582;29;20468;-85
2022/07/21 04:42:39;;;;;;;9.87;7.80;;;21.40;99.90;;;;;;4978087;28;20455;-82
2022/07/21 04:45:07;;;;;;;8.40;7.57;;;21.40;99.90;;;;;;4962128;29;20488;-84
2022/07/21 04:47:54;;;;;;;9.33;8.43;;;21.30;99.90;;;;;;4978569;28;20468;-87
2022/07/21 04:50:24;;;;;;;10.23;9.27;;;21.30;99.90;;;;;;4957542;28;20471;-88
2022/07/21 04:52:51;;;;;;;9.17;8.23;;;21.20;99.90;;;;;;4978468;28;20445;-87
2022/07/21 04:55:19;;;;;;;8.20;7.30;;;21.40;99.90;;;;;;4956829;28;20457;-87
2022/07/21 04:57:48;;;;;;;8.93;8.13;;;21.30;99.90;;;;;;4948873;29;20470;-86
2022/07/21 05:00:18;;;;;;;8.90;8.00;;;21.40;99.90;;;;;;4942665;29;20478;-87
2022/07/21 05:02:46;;;;;;;9.30;8.40;;;21.30;99.90;;;;;;4963090;28;20455;-86
2022/07/21 05:05:13;;;;;;;8.30;7.60;;;21.20;99.90;;;;;;4963351;28;20465;-85
2022/07/21 05:07:41;;;;;;;8.23;7.53;;;21.40;99.90;;;;;;4953806;29;20448;-88
2022/07/21 05:10:14;;;;;;;8.27;7.57;;;21.60;99.90;;;;;;4955798;28;20513;-86
2022/07/21 05:12:41;;;;;;;8.67;7.97;;;21.70;99.90;;;;;;4968809;28;20463;-87
2022/07/21 05:15:11;;;;;;;8.57;7.87;;;21.50;99.90;;;;;;4969594;28;20492;-86
2022/07/21 05:17:41;;;;;;;29.00;8.53;;;21.50;99.90;;;;;;4951318;29;20449;-86
2022/07/21 05:20:08;;;;;;;8.13;7.53;;;21.60;99.90;;;;;;4963549;28;20551;-87
2022/07/21 05:22:35;;;;;;;8.30;7.60;;;21.50;99.90;;;;;;4965700;28;20452;-88
2022/07/21 05:25:03;;;;;;;7.97;7.33;;;21.60;99.90;;;;;;4960353;29;20484;-87
2022/07/21 05:27:30;;;;;;;8.03;7.20;;;21.60;99.90;;;;;;4960906;28;20536;-85
2022/07/21 05:29:57;;;;;;;8.23;7.53;;;22.10;99.90;;;;;;4946502;29;20480;-87
2022/07/21 05:32:25;;;;;;;7.43;6.83;;;21.90;99.90;;;;;;4966099;29;20535;-85
2022/07/21 05:35:11;;;;;;;7.77;7.17;;;21.80;99.90;;;;;;4961195;28;20515;-86
2022/07/21 05:37:42;;;;;;;7.77;7.17;;;21.80;99.90;;;;;;4950603;29;20517;-87
2022/07/21 05:40:11;;;;;;;7.23;6.57;;;21.50;99.90;;;;;;4950282;29;20607;-87
2022/07/21 05:42:39;;;;;;;7.33;6.73;;;21.40;99.90;;;;;;4943758;29;20460;-85
2022/07/21 05:45:07;;;;;;;8.27;7.50;;;21.50;99.90;;;;;;4968116;29;20445;-87
2022/07/21 05:47:34;;;;;;;8.20;7.50;;;21.50;99.90;;;;;;4950722;29;20480;-85
2022/07/21 05:50:01;;;;;;;8.53;7.77;;;21.40;99.90;;;;;;4949764;29;20464;-84
2022/07/21 05:52:29;;;;;;;8.50;7.70;;;21.30;99.90;;;;;;4964834;29;20469;-86
2022/07/21 05:54:56;;;;;;;9.00;8.27;;;21.10;99.90;;;;;;4951142;29;20524;-85
2022/07/21 05:57:24;;;;;;;8.07;7.27;;;21.20;99.90;;;;;;4956053;29;20453;-86
2022/07/21 05:59:51;;;;;;;8.03;7.40;;;21.20;99.90;;;;;;4968318;28;20556;-85
2022/07/21 06:02:18;;;;;;;8.13;7.43;;;21.20;99.90;;;;;;4957796;29;20539;-85
2022/07/21 06:04:44;;;;;;;7.13;6.60;;;21.20;99.90;;;;;;4955636;29;20811;-85
2022/07/21 06:07:11;;;;;;;7.30;6.60;;;21.10;99.90;;;;;;4967659;28;20456;-87
2022/07/21 06:09:38;;;;;;;7.47;5.93;;;21.00;99.90;;;;;;4952624;29;20477;-85
2022/07/21 06:12:07;;;;;;;17.07;13.83;;;21.00;99.90;;;;;;4969312;28;20461;-85
2022/07/21 06:14:34;;;;;;;5.63;4.60;;;21.00;99.90;;;;;;4973609;29;20472;-85
2022/07/21 06:17:00;;;;;;;4.67;4.27;;;20.90;99.90;;;;;;4980864;28;20476;-86
2022/07/21 06:19:27;;;;;;;5.23;4.83;;;20.90;99.90;;;;;;4979811;28;20487;-85
2022/07/21 06:21:58;;;;;;;4.60;4.20;;;20.80;99.90;;;;;;4980779;28;20492;-86
2022/07/21 06:24:27;;;;;;;3.90;3.60;;;20.90;99.90;;;;;;4981210;28;20452;-87
2022/07/21 06:26:56;;;;;;;3.30;3.10;;;20.90;99.90;;;;;;4980861;28;20455;-87
2022/07/21 06:29:29;;;;;;;2.67;2.47;;;21.00;99.90;;;;;;4964125;28;20511;-88
2022/07/21 06:31:58;;;;;;;3.10;2.27;;;21.00;99.90;;;;;;4962023;28;20483;-88
2022/07/21 06:34:25;;;;;;;2.30;1.97;;;21.00;99.90;;;;;;4960179;28;20466;-86
2022/07/21 06:36:52;;;;;;;3.53;2.50;;;21.00;99.90;;;;;;4969407;28;20455;-85
2022/07/21 06:39:19;;;;;;;2.60;1.70;;;21.10;99.90;;;;;;4957113;29;20506;-86
2022/07/21 06:41:46;;;;;;;1.87;1.77;;;21.30;99.90;;;;;;4966533;28;20490;-86
2022/07/21 06:44:14;;;;;;;2.30;2.10;;;21.30;99.90;;;;;;4963312;28;20457;-89
2022/07/21 06:46:41;;;;;;;2.30;2.13;;;21.50;99.90;;;;;;4980601;28;20451;-88
2022/07/21 06:49:08;;;;;;;2.70;2.50;;;21.60;99.90;;;;;;4974121;28;20464;-87
2022/07/21 06:51:37;;;;;;;2.87;2.67;;;21.60;99.90;;;;;;4978866;28;20461;-85
2022/07/21 06:54:04;;;;;;;2.90;2.70;;;21.50;99.90;;;;;;4968867;28;20453;-84
2022/07/21 06:56:31;;;;;;;4.47;3.07;;;21.60;99.90;;;;;;4953066;29;20452;-87
2022/07/21 06:58:58;;;;;;;3.87;3.57;;;21.60;99.90;;;;;;4962789;28;20481;-86
2022/07/21 07:01:27;;;;;;;3.10;2.90;;;21.80;99.90;;;;;;4967786;28;20485;-87
2022/07/21 07:03:54;;;;;;;4.27;3.90;;;21.90;99.90;;;;;;4948163;29;20456;-87
2022/07/21 07:06:23;;;;;;;4.40;4.00;;;22.10;99.90;;;;;;4947383;29;20515;-86
2022/07/21 07:08:52;;;;;;;3.57;3.23;;;22.20;99.90;;;;;;4947055;29;20450;-85
2022/07/21 07:11:20;;;;;;;4.00;3.70;;;22.50;99.90;;;;;;4948339;29;20449;-85
2022/07/21 07:13:47;;;;;;;4.20;3.90;;;22.70;99.90;;;;;;4965768;29;20716;-86
2022/07/21 07:16:30;;;;;;;4.60;4.20;;;22.60;99.90;;;;;;4951269;29;20488;-86
2022/07/21 07:18:57;;;;;;;3.70;3.40;;;22.50;99.90;;;;;;4963834;28;20512;-86
2022/07/21 07:21:24;;;;;;;3.60;3.40;;;22.50;99.90;;;;;;4948695;29;20524;-88
2022/07/21 07:23:51;;;;;;;3.90;3.60;;;22.30;99.90;;;;;;4964602;29;20449;-87
2022/07/21 07:26:18;;;;;;;4.90;4.13;;;22.20;99.90;;;;;;4950109;29;20457;-84
2022/07/21 07:28:46;;;;;;;4.67;4.27;;;22.10;99.90;;;;;;4962216;28;20513;-86
2022/07/21 07:31:12;;;;;;;4.80;4.30;;;22.30;99.90;;;;;;4978585;28;20452;-87
2022/07/21 07:33:39;;;;;;;3.67;3.37;;;22.50;99.90;;;;;;4977162;28;20442;-88
2022/07/21 07:36:10;;;;;;;5.10;4.70;;;22.60;99.90;;;;;;4964917;28;20484;-86
2022/07/21 07:38:38;;;;;;;5.17;4.77;;;22.70;99.90;;;;;;4959123;28;20455;-87
2022/07/21 07:41:05;;;;;;;4.50;4.10;;;23.00;99.90;;;;;;4964013;29;20508;-86
2022/07/21 07:43:32;;;;;;;4.43;4.00;;;23.10;99.90;;;;;;4959952;29;20492;-86
2022/07/21 07:46:01;;;;;;;7.00;4.80;;;22.90;99.90;;;;;;4967181;28;20468;-85
2022/07/21 07:48:31;;;;;;;4.70;4.40;;;23.10;99.90;;;;;;4971216;28;20504;-86
2022/07/21 07:50:58;;;;;;;5.40;5.03;;;23.20;99.90;;;;;;4967302;29;20555;-87
2022/07/21 07:53:25;;;;;;;5.40;5.00;;;23.10;99.90;;;;;;4949899;29;20453;-87
2022/07/21 07:55:54;;;;;;;5.30;4.90;;;23.30;99.90;;;;;;4966402;29;20448;-85
2022/07/21 07:58:21;;;;;;;5.17;4.73;;;23.40;99.90;;;;;;4948923;29;20493;-87
2022/07/21 08:00:48;;;;;;;5.20;4.80;;;23.50;99.40;;;;;;4961103;29;20485;-85
2022/07/21 08:03:22;;;;;;;8.63;4.60;;;23.60;99.50;;;;;;4952670;29;20437;-86
2022/07/21 08:06:03;;;;;;;4.83;4.33;;;23.80;99.10;;;;;;4964207;28;20434;-87
2022/07/21 08:08:31;;;;;;;4.30;4.00;;;24.10;98.50;;;;;;4950584;29;20437;-86
2022/07/21 08:11:00;;;;;;;5.10;4.70;;;24.20;97.80;;;;;;4966353;29;20481;-85
2022/07/21 08:13:27;;;;;;;4.30;4.00;;;24.30;97.90;;;;;;4965390;29;20456;-88
2022/07/21 08:15:54;;;;;;;5.23;4.83;;;24.40;97.10;;;;;;4947616;29;20448;-84
2022/07/21 08:18:21;;;;;;;5.03;4.53;;;24.80;96.70;;;;;;4949374;29;20445;-85
2022/07/21 08:20:49;;;;;;;5.20;4.70;;;24.70;96.20;;;;;;4947104;29;20484;-86
2022/07/21 08:23:16;;;;;;;6.83;5.10;;;24.30;97.00;;;;;;4962240;28;20478;-86
2022/07/21 08:25:43;;;;;;;5.00;4.60;;;23.90;97.80;;;;;;4965555;29;20449;-86
2022/07/21 08:28:11;;;;;;;5.73;5.13;;;23.90;98.80;;;;;;4954012;29;20448;-87
2022/07/21 08:30:40;;;;;;;5.90;5.27;;;24.10;98.10;;;;;;4948574;29;20504;-86
2022/07/21 08:33:07;;;;;;;5.00;4.60;;;24.20;98.00;;;;;;4964770;29;20484;-85
2022/07/21 08:35:34;;;;;;;5.37;4.97;;;23.90;97.90;;;;;;4961385;28;20444;-86
2022/07/21 08:38:07;;;;;;;6.20;5.60;;;24.50;97.20;;;;;;4977103;28;20528;-85
2022/07/21 08:40:36;;;;;;;5.27;4.97;;;24.50;96.40;;;;;;4966803;29;20521;-84
2022/07/21 08:43:04;;;;;;;5.30;4.80;;;24.40;96.60;;;;;;4975180;29;20460;-86
2022/07/21 08:45:32;;;;;;;5.97;5.07;;;24.40;96.90;;;;;;4974815;29;20478;-86
2022/07/21 08:47:59;;;;;;;6.30;5.80;;;24.30;96.50;;;;;;4972552;29;20508;-87
2022/07/21 08:50:30;;;;;;;4.80;4.40;;;24.90;96.10;;;;;;4949731;29;20657;-87
2022/07/21 08:52:58;;;;;;;4.70;4.30;;;25.40;94.00;;;;;;4970800;29;20499;-87
2022/07/21 08:55:34;;;;;;;5.37;4.97;;;25.50;93.50;;;;;;4952885;29;20471;-86
2022/07/21 08:58:03;;;;;;;4.93;4.50;;;26.20;92.10;;;;;;4970493;29;20460;-85
2022/07/21 09:00:34;;;;;;;5.10;4.70;;;25.80;91.80;;;;;;4968350;29;20476;-86
2022/07/21 09:03:13;;;;;;;6.03;5.53;;;25.10;93.60;;;;;;4967352;29;20473;-86
2022/07/21 09:05:59;;;;;;;6.57;5.53;;;25.10;92.80;;;;;;4955366;29;20464;-85
2022/07/21 09:08:47;;;;;;;7.13;6.50;;;25.20;92.70;;;;;;4969394;29;20428;-86
2022/07/21 09:11:21;;;;;;;5.80;5.20;;;25.50;91.80;;;;;;4981010;28;20472;-88
2022/07/21 09:14:05;;;;;;;5.73;5.23;;;26.90;88.60;;;;;;4958876;29;20445;-87
2022/07/21 09:16:43;;;;;;;5.30;4.87;;;28.00;82.00;;;;;;4957021;29;20576;-87
2022/07/21 09:19:24;;;;;;;5.17;4.80;;;28.60;79.20;;;;;;4976677;28;20496;-87
2022/07/21 09:21:56;;;;;;;4.77;4.37;;;28.60;75.90;;;;;;4974076;29;20477;-88
2022/07/21 09:24:31;;;;;;;6.00;5.30;;;27.70;77.30;;;;;;4962607;28;20487;-86
2022/07/21 09:27:04;;;;;;;4.77;4.37;;;27.10;79.70;;;;;;4978681;29;20462;-86
2022/07/21 09:29:39;;;;;;;5.97;5.40;;;26.90;81.10;;;;;;4976063;29;20467;-85
2022/07/21 09:32:17;;;;;;;4.20;3.90;;;27.10;79.20;;;;;;4958079;29;20459;-86
2022/07/21 09:34:48;;;;;;;5.53;4.40;;;26.80;78.90;;;;;;4959405;29;20453;-87
2022/07/21 09:37:16;;;;;;;4.63;4.23;;;26.80;79.00;;;;;;4957125;29;20459;-87
2022/07/21 09:39:53;;;;;;;4.63;4.23;;;26.40;80.10;;;;;;4956153;29;20520;-86
2022/07/21 09:42:26;;;;;;;5.20;4.23;;;25.90;82.50;;;;;;4974204;28;20480;-86
2022/07/21 09:45:08;;;;;;;5.03;4.63;;;26.20;81.60;;;;;;4955447;29;20455;-87
2022/07/21 09:47:39;;;;;;;5.27;4.50;;;26.00;83.00;;;;;;4954288;28;20472;-86
2022/07/21 09:50:09;;;;;;;4.73;4.10;;;25.80;82.00;;;;;;4969674;28;20456;-86
2022/07/21 09:52:56;;;;;;;4.80;4.40;;;25.70;83.30;;;;;;4961090;28;20457;-87
2022/07/21 09:55:25;;;;;;;5.40;4.80;;;26.50;81.60;;;;;;4973917;29;20452;-87
2022/07/21 09:57:55;;;;;;;4.87;4.10;;;26.70;81.20;;;;;;4971077;29;20496;-86
2022/07/21 10:00:22;;;;;;;5.00;4.50;;;26.50;80.80;;;;;;4953447;29;20473;-86
2022/07/21 10:02:49;;;;;;;4.50;4.10;;;26.30;81.10;;;;;;4959270;29;20540;-86
2022/07/21 10:05:21;;;;;;;5.13;4.63;;;26.10;82.20;;;;;;4955080;29;20449;-86
2022/07/21 10:07:55;;;;;;;5.03;4.63;;;26.00;82.40;;;;;;4971920;29;20484;-85
2022/07/21 10:10:22;;;;;;;7.03;4.83;;;26.00;83.10;;;;;;4967725;28;20469;-85
2022/07/21 10:12:59;;;;;;;4.90;4.50;;;26.20;82.90;;;;;;4965043;29;21158;-86
2022/07/21 10:15:26;;;;;;;5.03;4.50;;;26.00;83.00;;;;;;4954362;29;20457;-86
2022/07/21 10:17:55;;;;;;;5.33;4.80;;;26.50;81.50;;;;;;4967945;29;20453;-86
2022/07/21 10:20:34;;;;;;;5.03;4.63;;;26.80;80.00;;;;;;4969116;28;20476;-86
2022/07/21 10:23:17;;;;;;;4.87;4.50;;;26.30;80.60;;;;;;4971511;28;20505;-86
2022/07/21 10:25:47;;;;;;;6.63;4.47;;;26.00;81.60;;;;;;4964804;29;20452;-86
2022/07/21 10:28:14;;;;;;;4.23;3.90;;;26.00;80.80;;;;;;4972817;28;20440;-88
2022/07/21 10:30:55;;;;;;;4.40;3.90;;;26.20;80.20;;;;;;4966554;28;20540;-85
2022/07/21 10:33:42;;;;;;;7.23;6.57;;;25.90;80.70;;;;;;4972507;28;20521;-87
2022/07/21 10:36:31;;;;;;;3.87;3.57;;;25.50;80.70;;;;;;4952799;28;20444;-89
2022/07/21 10:39:10;;;;;;;5.83;4.30;;;25.30;81.50;;;;;;4955338;28;20465;-86
2022/07/21 10:41:59;;;;;;;4.93;4.43;;;25.20;82.30;;;;;;4965590;28;20512;-86
2022/07/21 10:44:29;;;;;;;6.50;4.70;;;25.10;83.00;;;;;;4953060;29;20473;-85
2022/07/21 10:47:05;;;;;;;5.43;4.93;;;25.10;83.90;;;;;;4950628;29;20461;-86
2022/07/21 10:49:48;;;;;;;3.83;3.53;;;25.10;84.50;;;;;;4954163;29;20541;-86
2022/07/21 10:52:41;;;;;;;4.80;4.43;;;25.10;84.70;;;;;;4950517;29;20475;-87
2022/07/21 10:55:17;;;;;;;4.80;4.40;;;24.90;85.50;;;;;;4953212;29;20463;-86
2022/07/21 10:57:46;;;;;;;5.90;4.70;;;24.90;86.50;;;;;;4953869;29;20507;-87
2022/07/21 11:00:21;;;;;;;6.87;6.17;;;24.70;88.70;;;;;;4951624;29;20482;-87
2022/07/21 11:02:51;;;;;;;5.67;5.10;;;24.60;90.40;;;;;;4964905;28;20516;-86
2022/07/21 11:05:20;;;;;;;5.80;5.30;;;24.50;91.50;;;;;;4948888;29;20445;-87
2022/07/21 11:08:16;;;;;;;5.93;5.00;;;24.50;92.30;;;;;;4952704;29;20480;-88
2022/07/21 11:10:49;;;;;;;6.37;5.73;;;24.50;92.20;;;;;;4955636;29;20480;-86
2022/07/21 11:13:17;;;;;;;5.37;4.90;;;24.40;92.80;;;;;;4955300;29;20524;-87
2022/07/21 11:15:59;;;;;;;6.00;5.50;;;24.40;93.20;;;;;;4969985;28;20523;-88
2022/07/21 11:18:31;;;;;;;5.97;5.23;;;24.40;93.60;;;;;;4958520;29;20540;-86
2022/07/21 11:21:03;;;;;;;6.63;5.90;;;24.40;94.50;;;;;;4961169;28;20512;-86
2022/07/21 11:23:38;;;;;;;8.80;7.53;;;24.30;94.80;;;;;;4952878;29;20471;-86
2022/07/21 11:26:06;;;;;;;7.40;6.30;;;24.30;95.40;;;;;;4956565;29;20455;-85
2022/07/21 11:28:33;;;;;;;7.53;6.83;;;24.20;95.80;;;;;;4953495;28;20787;-87
2022/07/21 11:31:12;;;;;;;7.87;7.20;;;24.20;96.80;;;;;;4965887;29;20465;-86
2022/07/21 11:33:41;;;;;;;6.50;5.90;;;24.00;97.00;;;;;;4955054;29;20461;-87
2022/07/21 11:36:09;;;;;;;8.00;7.20;;;24.00;98.00;;;;;;4973430;29;20473;-87
2022/07/21 11:38:57;;;;;;;7.13;6.53;;;23.90;98.20;;;;;;4949968;29;20545;-86
2022/07/21 11:41:24;;;;;;;7.57;6.93;;;23.90;98.40;;;;;;4948495;29;20451;-86
2022/07/21 11:43:51;;;;;;;9.67;7.07;;;23.70;98.90;;;;;;4960745;29;20524;-85
2022/07/21 11:46:18;;;;;;;8.07;7.30;;;23.50;99.30;;;;;;4958212;29;20463;-86
2022/07/21 11:48:45;;;;;;;7.60;6.90;;;23.40;99.90;;;;;;4969404;28;20469;-88
2022/07/21 11:51:12;;;;;;;8.67;7.97;;;23.20;99.90;;;;;;4970882;29;20449;-86
2022/07/21 11:53:45;;;;;;;9.93;8.93;;;23.10;99.90;;;;;;4969682;29;20536;-86
2022/07/21 11:56:16;;;;;;;7.90;7.10;;;23.00;99.90;;;;;;4951990;29;20461;-84
2022/07/21 11:58:43;;;;;;;10.03;9.03;;;22.80;99.90;;;;;;4970297;28;20471;-84
2022/07/21 12:01:11;;;;;;;10.63;8.10;;;22.80;99.90;;;;;;4954651;28;20449;-88
2022/07/21 12:03:50;;;;;;;8.50;7.73;;;22.80;99.90;;;;;;4970889;28;21551;-83
2022/07/21 12:06:18;;;;;;;9.17;8.27;;;22.70;99.90;;;;;;4967555;29;20482;-86
2022/07/21 12:08:45;;;;;;;8.73;8.03;;;22.80;99.90;;;;;;4951761;28;20453;-86
2022/07/21 12:11:12;;;;;;;10.07;9.07;;;22.80;99.90;;;;;;4951938;29;20458;-86
2022/07/21 12:13:58;;;;;;;10.00;9.00;;;23.00;99.90;;;;;;4965746;28;20508;-87
2022/07/21 12:16:25;;;;;;;9.83;8.30;;;22.90;99.90;;;;;;4964648;29;20453;-86
2022/07/21 12:19:15;;;;;;;9.20;8.23;;;22.60;99.90;;;;;;4948044;29;20873;-86
2022/07/21 12:21:50;;;;;;;10.33;9.27;;;22.50;99.90;;;;;;4960432;28;20464;-84
2022/07/21 12:24:18;;;;;;;9.43;8.43;;;22.40;99.90;;;;;;4946955;29;20808;-85
2022/07/21 12:26:46;;;;;;;9.57;8.77;;;22.40;99.90;;;;;;4963298;29;20440;-84
2022/07/21 12:29:27;;;;;;;9.33;8.53;;;22.50;99.90;;;;;;4946049;29;20483;-84
2022/07/21 12:31:55;;;;;;;9.80;8.80;;;22.40;99.90;;;;;;4962810;29;21086;-83
2022/07/21 12:34:24;;;;;;;12.00;8.97;;;22.70;99.90;;;;;;4954377;28;20480;-86
2022/07/21 12:36:53;;;;;;;10.70;9.70;;;22.80;99.90;;;;;;4949864;29;20468;-86
2022/07/21 12:42:34;;;;;;;8.47;7.67;;;22.60;99.90;;;;;;4962600;29;20879;-87
2022/07/21 12:45:11;;;;;;;10.43;9.47;;;22.50;99.90;;;;;;4952213;29;20762;-86
2022/07/21 12:47:38;;;;;;;9.20;8.50;;;22.40;99.90;;;;;;4958118;29;20487;-86
2022/07/21 12:50:08;;;;;;;10.43;9.37;;;22.70;99.90;;;;;;4962823;28;20464;-85
2022/07/21 12:52:42;;;;;;;14.10;9.83;;;22.70;99.90;;;;;;4959945;29;20437;-86
2022/07/21 12:55:09;;;;;;;10.13;9.30;;;22.50;99.90;;;;;;4961569;29;20468;-85
2022/07/21 12:57:36;;;;;;;11.40;10.30;;;22.40;99.90;;;;;;4947244;29;20464;-85
2022/07/21 13:00:04;;;;;;;12.60;10.43;;;22.40;99.90;;;;;;4963496;29;20821;-85
2022/07/21 13:02:50;;;;;;;11.40;10.30;;;22.30;99.90;;;;;;4961211;28;20486;-86
2022/07/21 13:05:17;;;;;;;11.97;10.73;;;22.10;99.90;;;;;;4943534;29;20441;-85